createdAt,value
2023-05-15T00:02:30.813Z,15.3
2023-05-15T00:08:23.205Z,15.1
2023-05-15T00:13:23.236Z,15
2023-05-15T00:18:30.686Z,14.8
2023-05-15T00:24:23.261Z,14.7
2023-05-15T00:29:30.957Z,14.6
2023-05-15T00:35:23.438Z,14.3
2023-05-15T00:40:29.993Z,14.5
2023-05-15T00:45:30.027Z,14.4
2023-05-15T00:50:30.064Z,14.2
2023-05-15T00:55:30.236Z,14.3
2023-05-15T01:01:23.318Z,14.3
2023-05-15T01:06:23.297Z,14.4
2023-05-15T01:11:29.991Z,14.4
2023-05-15T01:16:30.085Z,14.3
2023-05-15T01:22:23.317Z,14.2
2023-05-15T01:27:29.990Z,14.1
2023-05-15T01:32:30.448Z,14.1
2023-05-15T01:38:23.213Z,14
2023-05-15T01:43:23.207Z,14
2023-05-15T01:48:23.344Z,14
2023-05-15T01:53:33.617Z,14
2023-05-15T01:59:23.315Z,13.8
2023-05-15T02:04:33.933Z,13.8
2023-05-15T02:09:33.619Z,13.7
2023-05-15T02:15:23.753Z,13.6
2023-05-15T02:20:23.317Z,13.5
2023-05-15T02:25:23.526Z,13.3
2023-05-15T02:30:33.620Z,13.5
2023-05-15T02:36:23.327Z,13.4
2023-05-15T02:46:33.637Z,13.4
2023-05-15T02:52:23.383Z,13.4
2023-05-15T02:57:33.617Z,13.6
2023-05-15T03:03:23.336Z,13.7
2023-05-15T03:08:23.364Z,13.8
2023-05-15T03:13:33.619Z,13.9
2023-05-15T03:18:33.688Z,13.9
2023-05-15T03:24:23.352Z,14
2023-05-15T03:29:33.602Z,14.1
2023-05-15T03:34:33.608Z,14.2
2023-05-15T03:39:33.620Z,14.3
2023-05-15T03:44:33.640Z,14.2
2023-05-15T03:49:33.651Z,14.3
2023-05-15T03:55:23.585Z,14.3
2023-05-15T04:00:23.574Z,14.3
2023-05-15T04:05:33.724Z,14.4
2023-05-15T04:11:23.357Z,14.5
2023-05-15T04:16:33.662Z,14.5
2023-05-15T04:21:33.636Z,14.6
2023-05-15T04:27:23.348Z,14.7
2023-05-15T04:32:33.651Z,14.7
2023-05-15T04:37:36.858Z,14.8
2023-05-15T04:43:23.339Z,14.8
2023-05-15T04:48:33.639Z,15
2023-05-15T04:58:33.664Z,15.1
2023-05-15T05:04:23.372Z,15
2023-05-15T05:14:33.637Z,15
2023-05-15T05:20:23.369Z,15.1
2023-05-15T05:25:23.471Z,15.2
2023-05-15T05:30:33.652Z,15.3
2023-05-15T05:35:33.688Z,15.3
2023-05-15T05:41:23.369Z,15.4
2023-05-15T05:46:33.676Z,15.4
2023-05-15T05:52:23.389Z,15.6
2023-05-15T05:57:33.636Z,15.6
2023-05-15T06:02:33.721Z,15.6
2023-05-15T06:07:33.649Z,15.5
2023-05-15T06:12:33.670Z,15.2
2023-05-15T06:18:23.390Z,15.5
2023-05-15T06:23:33.650Z,15.6
2023-05-15T06:29:23.380Z,15.6
2023-05-15T06:34:23.472Z,15.6
2023-05-15T06:39:33.672Z,15.5
2023-05-15T06:45:23.518Z,15.6
2023-05-15T06:50:23.405Z,15.7
2023-05-15T06:55:23.600Z,15.7
2023-05-15T07:00:33.664Z,15.8
2023-05-15T07:05:33.685Z,16
2023-05-15T07:10:33.685Z,16
2023-05-15T07:31:33.773Z,16.2
2023-05-15T07:37:23.370Z,16.3
2023-05-15T07:42:23.395Z,16.4
2023-05-15T07:47:33.712Z,16.7
2023-05-15T07:52:33.683Z,16.7
2023-05-15T07:58:23.400Z,16.9
2023-05-15T08:03:33.836Z,16.9
2023-05-15T08:09:23.387Z,16.9
2023-05-15T08:14:23.426Z,16.9
2023-05-15T08:19:33.665Z,16.9
2023-05-15T08:24:33.673Z,16.8
2023-05-15T08:29:33.676Z,16.8
2023-05-15T08:35:23.534Z,16.8
2023-05-15T08:40:39.564Z,16.8
2023-05-15T08:46:23.427Z,16.9
2023-05-15T08:51:23.408Z,17.2
2023-05-15T08:56:33.686Z,17.3
2023-05-15T09:02:23.427Z,17.2
2023-05-15T09:07:23.397Z,17.3
2023-05-15T09:15:33.709Z,17.6
2023-05-15T09:20:43.973Z,17.6
2023-05-15T09:26:23.391Z,17.9
2023-05-15T09:31:23.472Z,18.1
2023-05-15T09:36:33.695Z,18.2
2023-05-15T09:41:33.689Z,18.4
2023-05-15T09:47:23.535Z,18.3
2023-05-15T09:52:33.707Z,18.4
2023-05-15T09:58:23.595Z,18.4
2023-05-15T10:03:33.717Z,18.7
2023-05-15T10:09:23.395Z,18.7
2023-05-15T10:14:23.401Z,18.7
2023-05-15T10:19:23.545Z,18.8
2023-05-15T10:24:33.673Z,19.2
2023-05-15T10:29:33.729Z,19.6
2023-05-15T10:35:23.442Z,19.9
2023-05-15T10:40:33.693Z,20.3
2023-05-15T10:46:23.420Z,20.3
2023-05-15T10:51:23.456Z,21
2023-05-15T11:12:23.426Z,22.8
2023-05-15T11:17:34.303Z,22.9
2023-05-15T11:23:23.404Z,22.7
2023-05-15T11:28:23.438Z,22.9
2023-05-15T11:33:33.692Z,22.5
2023-05-15T11:38:33.853Z,23.2
2023-05-15T11:44:23.453Z,22.2
2023-05-15T11:49:23.450Z,22.2
2023-05-15T11:54:33.700Z,22.7
2023-05-15T12:00:23.731Z,22.6
2023-05-15T12:05:23.460Z,22.5
2023-05-15T12:10:33.723Z,22.5
2023-05-15T12:15:33.765Z,22.2
2023-05-15T12:21:23.561Z,22.4
2023-05-15T12:32:23.541Z,22.3
2023-05-15T12:37:33.749Z,22.3
2023-05-15T12:43:23.453Z,22.8
2023-05-15T12:48:23.468Z,23.2
2023-05-15T12:53:33.746Z,23.3
2023-05-15T12:59:23.448Z,23.2
2023-05-15T13:04:33.729Z,23.4
2023-05-15T13:09:33.724Z,23.6
2023-05-15T13:14:33.754Z,23.2
2023-05-15T13:20:23.710Z,23.4
2023-05-15T13:25:33.777Z,23.4
2023-05-15T13:30:33.742Z,23.4
2023-05-15T13:35:33.809Z,22.7
2023-05-15T13:41:23.477Z,22.7
2023-05-15T13:46:33.800Z,22.9
2023-05-15T13:52:23.460Z,22.6
2023-05-15T13:57:23.462Z,22.7
2023-05-15T14:02:23.466Z,22.3
2023-05-15T14:07:23.523Z,22.3
2023-05-15T14:12:33.783Z,23
2023-05-15T14:18:23.449Z,22.4
2023-05-15T14:23:23.523Z,22.6
2023-05-15T14:28:33.769Z,22.9
2023-05-15T14:33:33.776Z,23.2
2023-05-15T14:39:23.495Z,23
2023-05-15T14:44:23.492Z,23.1
2023-05-15T14:49:33.783Z,22.8
2023-05-15T14:55:23.475Z,22.4
2023-05-15T15:00:23.603Z,22.8
2023-05-15T15:05:23.502Z,22.3
2023-05-15T15:10:33.762Z,22.5
2023-05-15T15:16:23.537Z,22.5
2023-05-15T15:21:23.504Z,22.6
2023-05-15T15:26:33.801Z,22.3
2023-05-15T15:31:33.823Z,21.6
2023-05-15T15:36:33.791Z,20.8
2023-05-15T15:42:23.512Z,20.8
2023-05-15T15:47:33.825Z,21
2023-05-15T15:53:23.549Z,21.5
2023-05-15T15:58:23.509Z,21.6
2023-05-15T16:03:23.586Z,21.7
2023-05-15T16:08:33.794Z,22
2023-05-15T16:14:24.219Z,21.4
2023-05-15T16:19:34.857Z,21.9
2023-05-15T16:25:23.535Z,22.2
2023-05-15T16:30:30.599Z,22
2023-05-15T16:35:23.550Z,21.2
2023-05-15T16:40:33.834Z,21.6
2023-05-15T16:46:23.581Z,21.5
2023-05-15T16:51:23.533Z,21
2023-05-15T16:56:33.805Z,20.7
2023-05-15T17:01:33.886Z,20.8
2023-05-15T17:06:33.802Z,20.2
2023-05-15T17:12:23.510Z,20.6
2023-05-15T17:17:23.564Z,20.5
2023-05-15T17:22:23.518Z,20.3
2023-05-15T17:27:33.809Z,20
2023-05-15T17:33:23.514Z,19.8
2023-05-15T17:38:23.529Z,19.5
2023-05-15T17:43:23.545Z,19.5
2023-05-15T17:48:33.824Z,19.6
2023-05-15T17:54:23.545Z,19.7
2023-05-15T17:59:23.567Z,19.5
2023-05-15T18:04:33.826Z,19.4
2023-05-15T18:09:33.828Z,19.2
2023-05-15T18:14:33.984Z,19.1
2023-05-15T18:20:23.553Z,19.1
2023-05-15T18:25:33.824Z,18.7
2023-05-15T18:30:33.822Z,18.9
2023-05-15T18:35:33.842Z,18.8
2023-05-15T18:41:23.571Z,19
2023-05-15T18:46:33.857Z,19
2023-05-15T18:52:23.562Z,18.5
2023-05-15T18:57:23.612Z,18.5
2023-05-15T19:02:33.868Z,18.2
2023-05-15T19:07:33.879Z,18
2023-05-15T19:12:33.862Z,18.2
2023-05-15T19:18:23.573Z,18
2023-05-15T19:23:23.560Z,17.9
2023-05-15T19:28:23.565Z,17.8
2023-05-15T19:33:33.859Z,17.8
2023-05-15T19:38:34.278Z,17.6
2023-05-15T19:44:23.563Z,17.5
2023-05-15T19:49:23.540Z,17.5
2023-05-15T19:54:23.562Z,17.3
2023-05-15T19:59:33.953Z,17
2023-05-15T20:05:23.572Z,16.9
2023-05-15T20:10:23.573Z,16.3
2023-05-15T20:15:33.840Z,16.4
2023-05-15T20:20:33.860Z,16.3
2023-05-15T20:26:23.564Z,16.2
2023-05-15T20:31:23.623Z,15.8
2023-05-15T20:36:23.604Z,16
2023-05-15T20:41:33.845Z,16.1
2023-05-15T20:46:33.970Z,16.1
2023-05-15T20:52:23.567Z,16.1
2023-05-15T20:57:23.575Z,16
2023-05-15T21:02:33.940Z,15.8
2023-05-15T21:08:23.702Z,15.7
2023-05-15T21:13:33.879Z,15.8
2023-05-15T21:19:23.682Z,15.7
2023-05-15T21:24:23.581Z,15.5
2023-05-15T21:29:33.872Z,15.7
2023-05-15T21:34:33.880Z,15.6
2023-05-15T21:40:23.566Z,15.1
2023-05-15T21:45:33.863Z,15.3
2023-05-15T21:50:33.865Z,15.3
2023-05-15T21:55:33.867Z,15.3
2023-05-15T22:00:33.886Z,15.2
2023-05-15T22:06:23.570Z,14.9
2023-05-15T22:11:23.616Z,14.8
2023-05-15T22:16:33.907Z,14.5
2023-05-15T22:21:33.919Z,14.6
2023-05-15T22:26:33.939Z,14.5
2023-05-15T22:32:23.623Z,14.6
2023-05-15T22:37:33.885Z,14.8
2023-05-15T22:43:23.601Z,14.8
2023-05-15T22:48:23.609Z,14.9
2023-05-15T22:53:33.855Z,14.9
2023-05-15T22:58:33.887Z,14.7
2023-05-15T23:04:23.659Z,14.7
2023-05-15T23:09:33.878Z,14.7
2023-05-15T23:14:33.876Z,14.5
2023-05-15T23:20:23.632Z,14.5
2023-05-15T23:25:33.874Z,14.4
2023-05-15T23:31:23.672Z,14.6
2023-05-15T23:36:33.903Z,14.4
2023-05-15T23:42:23.611Z,14.2
2023-05-15T23:47:33.965Z,14.5
2023-05-15T23:52:33.946Z,14.4
2023-05-15T23:58:23.583Z,14.4
